Flight Track Log - Related Links

Times and Time Zones

All times are in EDT time to prevent confusion due to time zone crossing. See the FLG3757 flight status page for this flight to view local times or setup timezone preferences in your user account.

Time Position Orientation Groundspeed Altitude Reporting Facility
EDT Latitude Longitude Course Direction KTS MPH feet Rate Location/Type
Thu 06:05:17 AM 42.2447 -76.0431 289° West 174 200 3,600  Level Cleveland Center
Thu 06:05:51 AM 42.2542 -76.0825 288° West 187 215 4,500 1,851 Climbing New York Center
Thu 06:06:51 AM 42.2772 -76.1742 289° West 226 260 6,500 1,895 Climbing New York Center
Thu 06:09:20 AM 42.3539 -76.4392 291° West 322 371 11,100 1,743 Climbing Cleveland Center
Thu 06:10:00 AM 42.2281 -76.6405 289° West  Level Estimated
Thu 06:10:21 AM 42.3894 -76.5669 291° West 359 413 12,600  Level Cleveland Center
Thu 06:11:22 AM 42.4258 -76.7011 290° West 374 430 14,100 1,488 Climbing Cleveland Center
Thu 06:12:22 AM 42.4625 -76.8375 290° West 384 442 15,600 1,636 Climbing Cleveland Center
Thu 06:13:23 AM 42.5072 -77.0047 290° West 392 451 17,400 1,426 Climbing Cleveland Center
Thu 06:14:24 AM 42.5439 -77.1444 290° West 394 453 18,500 1,082 Climbing Cleveland Center
Thu 06:15:25 AM 42.5733 -77.2881 286° West 401 461 19,600 1,033 Climbing Cleveland Center
Thu 06:16:26 AM 42.5811 -77.4397 274° West 405 466 20,600 893 Climbing Cleveland Center
Thu 06:17:26 AM 42.5878 -77.5753 274° West 404 465 21,400 942 Climbing Cleveland Center
Thu 06:18:27 AM 42.5961 -77.7297 274° West 409 471 22,500 1,131 Climbing Cleveland Center
Thu 06:19:28 AM 42.6053 -77.9114 274° West 407 468 23,700 1,082 Climbing Cleveland Center
Thu 06:20:29 AM 42.6122 -78.0661 274° West 409 471 24,700 984 Climbing Cleveland Center
Thu 06:21:30 AM 42.6194 -78.2169 274° West 404 465 25,700 639 Climbing Cleveland Center
Thu 06:22:31 AM 42.6261 -78.3661 274° West 399 459 26,000 148 Climbing Cleveland Center
Thu 06:23:32 AM 42.6319 -78.5225 273° West 409 471 26,000  Level Cleveland Center
Thu 06:24:33 AM 42.6408 -78.6872 274° West 431 496 26,000  Level Cleveland Center
Thu 06:25:33 AM 42.6469 -78.8503 273° West 432 497 26,000  Level Cleveland Center
Thu 06:26:34 AM 42.6533 -79.0125 273° West 433 498 26,000  Level Cleveland Center
Thu 06:27:35 AM 42.6586 -79.1781 273° West 438 504 26,000  Level Cleveland Center
Thu 06:28:36 AM 42.6639 -79.3419 273° West 437 503 26,000  Level Cleveland Center
Thu 06:29:37 AM 42.6633 -79.5083 270° West 440 506 26,000  Level Cleveland Center
Thu 06:30:38 AM 42.6572 -79.6753 267° West 442 509 26,000  Level Cleveland Center
Thu 06:31:39 AM 42.6503 -79.8403 267° West 442 509 26,000  Level Cleveland Center
Thu 06:32:40 AM 42.6400 -80.0131 265° West 440 506 26,000  Level Cleveland Center
Thu 06:33:41 AM 42.6344 -80.1811 267° West 439 505 26,000  Level Cleveland Center
Thu 06:34:42 AM 42.6264 -80.3478 266° West 439 505 26,000  Level Cleveland Center
Thu 06:35:43 AM 42.6197 -80.5156 267° West 442 509 26,000  Level Cleveland Center
Thu 06:36:44 AM 42.6106 -80.7097 266° West 440 506 26,000  Level Cleveland Center
Thu 06:37:45 AM 42.6019 -80.8819 266° West 451 519 26,000  Level Cleveland Center
Thu 06:38:46 AM 42.5942 -81.0489 266° West 444 511 26,000  Level Cleveland Center
Thu 06:39:48 AM 42.5847 -81.2164 266° West 443 510 26,000  Level Cleveland Center
Thu 06:40:49 AM 42.5758 -81.3836 266° West 442 509 26,000 -98 Level Cleveland Center
Thu 06:41:50 AM 42.5669 -81.5519 266° West 444 511 25,800 -639 Descending Cleveland Center
Thu 06:42:51 AM 42.5575 -81.7203 266° West 446 513 24,700 -1,426 Descending Cleveland Center
Thu 06:43:52 AM 42.5478 -81.8800 265° West 440 506 22,900 -2,195 Descending Cleveland Center
Thu 06:44:54 AM 42.5389 -82.0353 266° West 420 483 20,200 -2,439 Descending Cleveland Center
Thu 06:45:55 AM 42.5314 -82.1797 266° West 394 453 17,900 -2,651 Descending Cleveland Center
Thu 06:46:20 AM 42.5272 -82.2661 266° West 380 437 16,400 -2,557 Descending Cleveland Center
Thu 06:46:56 AM 42.5219 -82.3217 263° West 383 441 15,300 -2,557 Descending Cleveland Center
Thu 06:47:21 AM 42.5178 -82.4064 266° West 380 437 13,800 -2,557 Descending Cleveland Center
Thu 06:47:57 AM 42.5131 -82.4642 264° West 381 438 12,700 -1,770 Descending Cleveland Center
Thu 06:48:22 AM 42.5078 -82.5467 265° West 372 428 12,000 -774 Descending Cleveland Center
Thu 06:48:59 AM 42.4806 -82.6192 243° Southwest 364 419 11,900 -500 Descending Cleveland Center
Thu 06:49:22 AM 42.4658 -82.6656 247° West 346 398 11,500 -984 Descending Cleveland Center
Thu 06:50:00 AM 42.4431 -82.7314 245° Southwest 338 389 10,900 -1,082 Descending Cleveland Center
Thu 06:50:23 AM 42.4394 -82.7722 263° West 291 335 10,400 -1,377 Descending Cleveland Center
Thu 06:51:01 AM 42.4278 -82.8372 256° West 295 339 9,500 -1,500 Descending Cleveland Center
Thu 06:51:23 AM 42.4228 -82.8833 262° West 290 334 8,900 -1,548 Descending Cleveland Center
Thu 06:52:03 AM 42.4106 -82.9450 255° West 294 338 7,900 -1,475 Descending Cleveland Center
Thu 06:52:24 AM 42.4047 -82.9881 260° West 289 333 7,400 -1,475 Descending Cleveland Center
Thu 06:53:04 AM 42.3942 -83.0489 257° West 288 331 6,400 -1,672 Descending Cleveland Center
Thu 06:53:25 AM 42.3881 -83.0961 260° West 278 320 5,700 -1,475 Descending Cleveland Center
Thu 06:54:05 AM 42.3781 -83.1486 256° West 277 319 4,900 -1,600 Descending Cleveland Center
Thu 06:54:25 AM 42.3722 -83.1956 260° West 267 307 4,100 -871 Descending Cleveland Center
Thu 06:55:07 AM 42.3528 -83.2317 234° Southwest 252 290 4,000 -295 Descending Cleveland Center
Thu 06:55:26 AM 42.3303 -83.2519 214° Southwest 187 215 3,800 -984 Descending Cleveland Center
Thu 06:56:08 AM 42.3064 -83.2678 206° Southwest 201 231 3,000 -1,475 Descending Cleveland Center
Thu 06:56:27 AM 42.2858 -83.2853 212° Southwest 174 200 2,300 -1,065 Descending Cleveland Center
Thu 06:57:10 AM 42.2658 -83.2975 204° Southwest 171 197 1,900 -900 Descending Cleveland Center
Thu 06:57:27 AM 42.2481 -83.3111 210° Southwest 144 166 1,400 -885 Descending Cleveland Center
Thu 06:58:11 AM 42.2314 -83.3236 209° Southwest 145 167 1,000 -545 Descending Cleveland Center
Thu 07:00:00 AM 42.2124 -83.3534 236° Southwest  Level Estimated
Thu 07:07:00 AM 42.2124 -83.3534 236° Southwest  Level Estimated

Login

Don't have an account? Register now (free) for customized features, flight alerts, and more!